Terminal Aerodrome Forecast
Issued by NWS Medford, OR

Home | Current Version | Previous Version | Text Only | Print | Product List | Glossary On
Versions: 1 2 3 4 5 6 7 8 9 10 11 12 13 14 15 16 17 18 19
000
FTUS46 KMFR 041402 AAC
TAFMFR
TAF AMD
KMFR 041402Z 0414/0512 VRB03KT 5SM FU SKC
      TEMPO 0414/0416 2SM FU
     FM042200 31010KT 1SM FU SCT080
     FM050400 VRB03KT 6SM FU SKC
     FM051100 34003KT 5SM FU SKC=

USA.gov is the U.S. government's official web portal to all federal, state and local government web resources and services.